sensor_id;sensor_type;location;lat;lon;timestamp;P1;durP1;ratioP1;P2;durP2;ratioP2
14474;SDS011;7323;50.848;4.334;2023-04-19T00:01:50;23.67;;;20.63;;
14474;SDS011;7323;50.848;4.334;2023-04-19T00:04:18;24.10;;;21.50;;
14474;SDS011;7323;50.848;4.334;2023-04-19T00:06:50;23.77;;;21.37;;
14474;SDS011;7323;50.848;4.334;2023-04-19T00:09:21;23.20;;;20.57;;
14474;SDS011;7323;50.848;4.334;2023-04-19T00:11:52;24.97;;;22.30;;
14474;SDS011;7323;50.848;4.334;2023-04-19T00:14:32;25.03;;;22.47;;
14474;SDS011;7323;50.848;4.334;2023-04-19T00:17:21;23.33;;;20.93;;
14474;SDS011;7323;50.848;4.334;2023-04-19T00:20:43;24.17;;;21.57;;
14474;SDS011;7323;50.848;4.334;2023-04-19T00:26:57;25.77;;;23.07;;
14474;SDS011;7323;50.848;4.334;2023-04-19T00:33:00;24.67;;;20.77;;
14474;SDS011;7323;50.848;4.334;2023-04-19T00:36:45;25.10;;;21.67;;
14474;SDS011;7323;50.848;4.334;2023-04-19T00:52:21;24.23;;;21.63;;
14474;SDS011;7323;50.848;4.334;2023-04-19T00:58:44;24.50;;;21.90;;
14474;SDS011;7323;50.848;4.334;2023-04-19T01:01:16;25.10;;;22.43;;
14474;SDS011;7323;50.848;4.334;2023-04-19T01:04:00;24.97;;;21.87;;
14474;SDS011;7323;50.848;4.334;2023-04-19T01:06:30;25.87;;;22.77;;
14474;SDS011;7323;50.848;4.334;2023-04-19T01:09:06;25.00;;;22.00;;
14474;SDS011;7323;50.848;4.334;2023-04-19T01:11:47;25.67;;;21.87;;
14474;SDS011;7323;50.848;4.334;2023-04-19T01:14:16;26.87;;;23.70;;
14474;SDS011;7323;50.848;4.334;2023-04-19T01:16:49;25.63;;;22.77;;
14474;SDS011;7323;50.848;4.334;2023-04-19T01:19:26;25.17;;;22.03;;
14474;SDS011;7323;50.848;4.334;2023-04-19T01:21:55;24.47;;;21.87;;
14474;SDS011;7323;50.848;4.334;2023-04-19T01:24:25;26.47;;;23.63;;
14474;SDS011;7323;50.848;4.334;2023-04-19T01:26:51;27.20;;;23.93;;
14474;SDS011;7323;50.848;4.334;2023-04-19T01:29:20;28.00;;;21.20;;
14474;SDS011;7323;50.848;4.334;2023-04-19T01:31:49;25.30;;;22.37;;
14474;SDS011;7323;50.848;4.334;2023-04-19T01:34:19;25.93;;;21.43;;
14474;SDS011;7323;50.848;4.334;2023-04-19T01:39:42;26.83;;;22.97;;
14474;SDS011;7323;50.848;4.334;2023-04-19T01:42:17;26.30;;;23.60;;
14474;SDS011;7323;50.848;4.334;2023-04-19T01:44:58;25.17;;;22.57;;
14474;SDS011;7323;50.848;4.334;2023-04-19T01:47:30;27.77;;;23.57;;
14474;SDS011;7323;50.848;4.334;2023-04-19T01:49:56;27.00;;;23.10;;
14474;SDS011;7323;50.848;4.334;2023-04-19T01:52:25;25.17;;;22.47;;
14474;SDS011;7323;50.848;4.334;2023-04-19T01:54:54;26.33;;;23.13;;
14474;SDS011;7323;50.848;4.334;2023-04-19T01:57:23;26.07;;;22.63;;
14474;SDS011;7323;50.848;4.334;2023-04-19T02:00:04;27.57;;;24.63;;
14474;SDS011;7323;50.848;4.334;2023-04-19T02:03:07;26.23;;;23.43;;
14474;SDS011;7323;50.848;4.334;2023-04-19T02:06:08;24.47;;;21.83;;
14474;SDS011;7323;50.848;4.334;2023-04-19T02:16:13;26.17;;;22.93;;
14474;SDS011;7323;50.848;4.334;2023-04-19T02:18:59;25.63;;;21.27;;
14474;SDS011;7323;50.848;4.334;2023-04-19T02:21:27;25.90;;;22.90;;
14474;SDS011;7323;50.848;4.334;2023-04-19T02:24:43;24.40;;;21.80;;
14474;SDS011;7323;50.848;4.334;2023-04-19T02:27:54;27.43;;;24.53;;
14474;SDS011;7323;50.848;4.334;2023-04-19T02:30:54;26.10;;;22.93;;
14474;SDS011;7323;50.848;4.334;2023-04-19T02:46:58;24.57;;;21.87;;
14474;SDS011;7323;50.848;4.334;2023-04-19T02:53:17;24.17;;;21.67;;
14474;SDS011;7323;50.848;4.334;2023-04-19T02:56:04;27.30;;;20.63;;
14474;SDS011;7323;50.848;4.334;2023-04-19T03:05:18;24.33;;;21.73;;
14474;SDS011;7323;50.848;4.334;2023-04-19T03:44:41;25.20;;;20.23;;
14474;SDS011;7323;50.848;4.334;2023-04-19T03:47:11;21.73;;;19.40;;
14474;SDS011;7323;50.848;4.334;2023-04-19T04:07:16;22.73;;;20.27;;
14474;SDS011;7323;50.848;4.334;2023-04-19T04:10:07;23.17;;;20.67;;
14474;SDS011;7323;50.848;4.334;2023-04-19T04:12:39;23.20;;;20.47;;
14474;SDS011;7323;50.848;4.334;2023-04-19T04:15:20;25.93;;;20.73;;
14474;SDS011;7323;50.848;4.334;2023-04-19T04:20:52;22.30;;;19.33;;
14474;SDS011;7323;50.848;4.334;2023-04-19T04:23:55;20.83;;;18.63;;
14474;SDS011;7323;50.848;4.334;2023-04-19T04:26:32;22.97;;;20.57;;
14474;SDS011;7323;50.848;4.334;2023-04-19T04:33:27;25.43;;;20.83;;
14474;SDS011;7323;50.848;4.334;2023-04-19T04:39:28;25.10;;;20.67;;
14474;SDS011;7323;50.848;4.334;2023-04-19T04:42:19;23.53;;;20.47;;
14474;SDS011;7323;50.848;4.334;2023-04-19T04:55:16;23.13;;;19.40;;
14474;SDS011;7323;50.848;4.334;2023-04-19T04:58:29;26.33;;;21.17;;
14474;SDS011;7323;50.848;4.334;2023-04-19T05:04:35;25.00;;;20.37;;
14474;SDS011;7323;50.848;4.334;2023-04-19T05:07:47;25.10;;;19.93;;
14474;SDS011;7323;50.848;4.334;2023-04-19T05:27:19;25.30;;;21.03;;
14474;SDS011;7323;50.848;4.334;2023-04-19T05:30:10;25.27;;;21.20;;
14474;SDS011;7323;50.848;4.334;2023-04-19T05:32:51;25.10;;;19.50;;
14474;SDS011;7323;50.848;4.334;2023-04-19T05:35:32;24.73;;;19.37;;
14474;SDS011;7323;50.848;4.334;2023-04-19T05:42:08;25.87;;;20.33;;
14474;SDS011;7323;50.848;4.334;2023-04-19T05:44:44;24.03;;;19.60;;
14474;SDS011;7323;50.848;4.334;2023-04-19T05:47:25;27.13;;;22.10;;
14474;SDS011;7323;50.848;4.334;2023-04-19T05:53:37;24.80;;;20.13;;
14474;SDS011;7323;50.848;4.334;2023-04-19T05:56:38;24.53;;;21.40;;
14474;SDS011;7323;50.848;4.334;2023-04-19T05:59:05;26.77;;;21.00;;
14474;SDS011;7323;50.848;4.334;2023-04-19T06:08:12;27.00;;;22.33;;
14474;SDS011;7323;50.848;4.334;2023-04-19T06:10:40;25.00;;;20.00;;
14474;SDS011;7323;50.848;4.334;2023-04-19T06:13:21;28.50;;;21.83;;
14474;SDS011;7323;50.848;4.334;2023-04-19T06:16:11;24.83;;;22.13;;
14474;SDS011;7323;50.848;4.334;2023-04-19T06:19:04;26.87;;;21.70;;
14474;SDS011;7323;50.848;4.334;2023-04-19T06:22:18;27.37;;;22.07;;
14474;SDS011;7323;50.848;4.334;2023-04-19T06:25:12;28.43;;;23.50;;
14474;SDS011;7323;50.848;4.334;2023-04-19T06:27:38;25.73;;;21.73;;
14474;SDS011;7323;50.848;4.334;2023-04-19T06:33:32;23.37;;;20.87;;
14474;SDS011;7323;50.848;4.334;2023-04-19T06:36:31;23.90;;;21.17;;
14474;SDS011;7323;50.848;4.334;2023-04-19T06:42:43;24.93;;;21.33;;
14474;SDS011;7323;50.848;4.334;2023-04-19T06:45:32;25.07;;;21.83;;
14474;SDS011;7323;50.848;4.334;2023-04-19T06:51:33;28.80;;;20.07;;
14474;SDS011;7323;50.848;4.334;2023-04-19T06:54:30;22.73;;;20.00;;
14474;SDS011;7323;50.848;4.334;2023-04-19T06:57:29;22.50;;;19.50;;
14474;SDS011;7323;50.848;4.334;2023-04-19T07:03:28;22.37;;;19.47;;
14474;SDS011;7323;50.848;4.334;2023-04-19T07:05:56;22.43;;;18.27;;
14474;SDS011;7323;50.848;4.334;2023-04-19T07:11:21;19.90;;;17.43;;
14474;SDS011;7323;50.848;4.334;2023-04-19T07:13:50;20.53;;;17.90;;
14474;SDS011;7323;50.848;4.334;2023-04-19T07:16:27;20.80;;;17.53;;
14474;SDS011;7323;50.848;4.334;2023-04-19T07:22:31;19.93;;;17.13;;
14474;SDS011;7323;50.848;4.334;2023-04-19T07:25:12;19.43;;;16.47;;
14474;SDS011;7323;50.848;4.334;2023-04-19T07:31:07;19.03;;;16.67;;
14474;SDS011;7323;50.848;4.334;2023-04-19T07:33:49;20.30;;;16.63;;
14474;SDS011;7323;50.848;4.334;2023-04-19T07:43:20;22.07;;;17.30;;
14474;SDS011;7323;50.848;4.334;2023-04-19T07:45:47;18.23;;;15.87;;
14474;SDS011;7323;50.848;4.334;2023-04-19T07:48:16;20.17;;;16.23;;
14474;SDS011;7323;50.848;4.334;2023-04-19T07:53:51;19.37;;;16.30;;
14474;SDS011;7323;50.848;4.334;2023-04-19T07:56:20;18.97;;;16.80;;
14474;SDS011;7323;50.848;4.334;2023-04-19T08:01:26;19.70;;;16.63;;
14474;SDS011;7323;50.848;4.334;2023-04-19T08:03:53;18.13;;;16.17;;
14474;SDS011;7323;50.848;4.334;2023-04-19T08:06:19;18.67;;;14.53;;
14474;SDS011;7323;50.848;4.334;2023-04-19T08:08:46;18.70;;;15.30;;
14474;SDS011;7323;50.848;4.334;2023-04-19T08:11:15;18.03;;;15.57;;
14474;SDS011;7323;50.848;4.334;2023-04-19T08:13:44;19.67;;;15.87;;
14474;SDS011;7323;50.848;4.334;2023-04-19T08:16:09;20.00;;;16.37;;
14474;SDS011;7323;50.848;4.334;2023-04-19T08:18:35;18.57;;;15.53;;
14474;SDS011;7323;50.848;4.334;2023-04-19T08:21:01;19.20;;;15.33;;
14474;SDS011;7323;50.848;4.334;2023-04-19T08:23:27;18.30;;;15.00;;
14474;SDS011;7323;50.848;4.334;2023-04-19T08:25:53;18.33;;;15.43;;
14474;SDS011;7323;50.848;4.334;2023-04-19T08:28:22;15.47;;;13.60;;
14474;SDS011;7323;50.848;4.334;2023-04-19T08:30:47;16.17;;;13.73;;
14474;SDS011;7323;50.848;4.334;2023-04-19T08:33:13;15.83;;;13.20;;
14474;SDS011;7323;50.848;4.334;2023-04-19T08:35:39;16.57;;;13.93;;
14474;SDS011;7323;50.848;4.334;2023-04-19T08:38:05;16.43;;;13.47;;
14474;SDS011;7323;50.848;4.334;2023-04-19T08:40:33;15.63;;;13.70;;
14474;SDS011;7323;50.848;4.334;2023-04-19T08:43:03;14.47;;;12.77;;
14474;SDS011;7323;50.848;4.334;2023-04-19T08:45:30;14.63;;;13.13;;
14474;SDS011;7323;50.848;4.334;2023-04-19T08:48:00;15.93;;;13.83;;
14474;SDS011;7323;50.848;4.334;2023-04-19T08:50:27;15.13;;;13.60;;
14474;SDS011;7323;50.848;4.334;2023-04-19T08:52:57;16.83;;;14.03;;
14474;SDS011;7323;50.848;4.334;2023-04-19T08:55:26;16.80;;;12.57;;
14474;SDS011;7323;50.848;4.334;2023-04-19T08:57:54;15.23;;;12.80;;
14474;SDS011;7323;50.848;4.334;2023-04-19T09:00:20;14.30;;;12.03;;
14474;SDS011;7323;50.848;4.334;2023-04-19T09:02:47;16.70;;;12.97;;
14474;SDS011;7323;50.848;4.334;2023-04-19T09:05:19;14.40;;;12.23;;
14474;SDS011;7323;50.848;4.334;2023-04-19T09:07:45;13.80;;;12.23;;
14474;SDS011;7323;50.848;4.334;2023-04-19T09:10:11;14.00;;;12.00;;
14474;SDS011;7323;50.848;4.334;2023-04-19T09:12:39;14.47;;;12.97;;
14474;SDS011;7323;50.848;4.334;2023-04-19T09:15:06;14.83;;;13.23;;
14474;SDS011;7323;50.848;4.334;2023-04-19T09:17:36;16.40;;;13.03;;
14474;SDS011;7323;50.848;4.334;2023-04-19T09:20:06;15.23;;;12.70;;
14474;SDS011;7323;50.848;4.334;2023-04-19T09:22:33;13.87;;;12.07;;
14474;SDS011;7323;50.848;4.334;2023-04-19T09:24:59;13.47;;;12.07;;
14474;SDS011;7323;50.848;4.334;2023-04-19T09:29:57;15.70;;;12.13;;
14474;SDS011;7323;50.848;4.334;2023-04-19T09:32:24;13.97;;;12.43;;
14474;SDS011;7323;50.848;4.334;2023-04-19T09:34:57;13.37;;;11.97;;
14474;SDS011;7323;50.848;4.334;2023-04-19T09:37:23;13.67;;;12.00;;
14474;SDS011;7323;50.848;4.334;2023-04-19T09:39:52;13.03;;;11.73;;
14474;SDS011;7323;50.848;4.334;2023-04-19T09:42:23;12.03;;;10.83;;
14474;SDS011;7323;50.848;4.334;2023-04-19T09:45:08;12.93;;;11.47;;
14474;SDS011;7323;50.848;4.334;2023-04-19T09:47:34;13.83;;;10.83;;
14474;SDS011;7323;50.848;4.334;2023-04-19T09:50:18;13.27;;;11.73;;
14474;SDS011;7323;50.848;4.334;2023-04-19T09:52:52;14.17;;;10.90;;
14474;SDS011;7323;50.848;4.334;2023-04-19T09:55:21;12.10;;;10.47;;
14474;SDS011;7323;50.848;4.334;2023-04-19T09:57:47;11.17;;;10.07;;
14474;SDS011;7323;50.848;4.334;2023-04-19T10:00:13;12.53;;;10.23;;
14474;SDS011;7323;50.848;4.334;2023-04-19T10:02:39;10.70;;;9.60;;
14474;SDS011;7323;50.848;4.334;2023-04-19T10:05:07;10.97;;;9.80;;
14474;SDS011;7323;50.848;4.334;2023-04-19T10:07:34;10.83;;;9.20;;
14474;SDS011;7323;50.848;4.334;2023-04-19T10:10:01;12.03;;;9.80;;
14474;SDS011;7323;50.848;4.334;2023-04-19T10:12:27;10.97;;;9.40;;
14474;SDS011;7323;50.848;4.334;2023-04-19T10:14:55;10.33;;;8.30;;
14474;SDS011;7323;50.848;4.334;2023-04-19T10:17:23;10.53;;;9.43;;
14474;SDS011;7323;50.848;4.334;2023-04-19T10:19:54;10.73;;;9.53;;
14474;SDS011;7323;50.848;4.334;2023-04-19T10:22:25;9.37;;;8.27;;
14474;SDS011;7323;50.848;4.334;2023-04-19T10:27:38;10.10;;;9.10;;
14474;SDS011;7323;50.848;4.334;2023-04-19T10:30:05;12.07;;;9.00;;
14474;SDS011;7323;50.848;4.334;2023-04-19T10:32:41;11.23;;;9.13;;
14474;SDS011;7323;50.848;4.334;2023-04-19T10:35:19;10.77;;;9.10;;
14474;SDS011;7323;50.848;4.334;2023-04-19T10:38:04;9.47;;;8.57;;
14474;SDS011;7323;50.848;4.334;2023-04-19T10:43:33;10.90;;;7.93;;
14474;SDS011;7323;50.848;4.334;2023-04-19T10:46:07;12.50;;;9.03;;
14474;SDS011;7323;50.848;4.334;2023-04-19T10:48:48;9.90;;;8.53;;
14474;SDS011;7323;50.848;4.334;2023-04-19T10:51:36;10.10;;;8.40;;
14474;SDS011;7323;50.848;4.334;2023-04-19T10:54:06;9.47;;;7.70;;
14474;SDS011;7323;50.848;4.334;2023-04-19T11:01:40;9.90;;;7.87;;
14474;SDS011;7323;50.848;4.334;2023-04-19T11:04:17;9.23;;;7.97;;
14474;SDS011;7323;50.848;4.334;2023-04-19T11:09:22;8.93;;;7.17;;
14474;SDS011;7323;50.848;4.334;2023-04-19T11:11:51;7.63;;;6.83;;
14474;SDS011;7323;50.848;4.334;2023-04-19T11:14:19;7.43;;;6.70;;
14474;SDS011;7323;50.848;4.334;2023-04-19T11:16:45;7.47;;;6.70;;
14474;SDS011;7323;50.848;4.334;2023-04-19T11:19:17;8.03;;;6.53;;
14474;SDS011;7323;50.848;4.334;2023-04-19T11:21:44;9.10;;;7.10;;
14474;SDS011;7323;50.848;4.334;2023-04-19T11:24:11;8.37;;;6.67;;
14474;SDS011;7323;50.848;4.334;2023-04-19T11:26:43;9.37;;;6.83;;
14474;SDS011;7323;50.848;4.334;2023-04-19T11:29:13;9.00;;;6.93;;
14474;SDS011;7323;50.848;4.334;2023-04-19T11:31:39;8.97;;;7.70;;
14474;SDS011;7323;50.848;4.334;2023-04-19T11:34:07;7.40;;;6.47;;
14474;SDS011;7323;50.848;4.334;2023-04-19T11:36:33;8.03;;;7.07;;
14474;SDS011;7323;50.848;4.334;2023-04-19T11:39:03;9.50;;;6.77;;
14474;SDS011;7323;50.848;4.334;2023-04-19T11:41:36;10.60;;;7.80;;
14474;SDS011;7323;50.848;4.334;2023-04-19T11:44:03;9.47;;;7.27;;
14474;SDS011;7323;50.848;4.334;2023-04-19T11:46:31;8.30;;;7.10;;
14474;SDS011;7323;50.848;4.334;2023-04-19T11:48:57;8.40;;;6.83;;
14474;SDS011;7323;50.848;4.334;2023-04-19T11:51:25;11.00;;;7.80;;
14474;SDS011;7323;50.848;4.334;2023-04-19T11:53:51;9.00;;;7.00;;
14474;SDS011;7323;50.848;4.334;2023-04-19T11:56:16;8.97;;;7.80;;
14474;SDS011;7323;50.848;4.334;2023-04-19T11:58:43;11.87;;;8.20;;
14474;SDS011;7323;50.848;4.334;2023-04-19T12:01:21;11.10;;;8.17;;
14474;SDS011;7323;50.848;4.334;2023-04-19T12:03:52;10.90;;;8.10;;
14474;SDS011;7323;50.848;4.334;2023-04-19T12:06:24;11.03;;;8.37;;
14474;SDS011;7323;50.848;4.334;2023-04-19T12:08:52;10.07;;;7.90;;
14474;SDS011;7323;50.848;4.334;2023-04-19T12:11:20;9.40;;;7.17;;
14474;SDS011;7323;50.848;4.334;2023-04-19T12:14:11;10.87;;;7.63;;
14474;SDS011;7323;50.848;4.334;2023-04-19T12:16:37;11.97;;;7.90;;
14474;SDS011;7323;50.848;4.334;2023-04-19T12:19:16;8.77;;;7.63;;
14474;SDS011;7323;50.848;4.334;2023-04-19T12:21:44;10.03;;;7.43;;
14474;SDS011;7323;50.848;4.334;2023-04-19T12:24:11;8.80;;;7.13;;
14474;SDS011;7323;50.848;4.334;2023-04-19T12:26:51;10.00;;;7.93;;
14474;SDS011;7323;50.848;4.334;2023-04-19T12:29:26;8.70;;;7.80;;
14474;SDS011;7323;50.848;4.334;2023-04-19T12:31:51;8.27;;;7.20;;
14474;SDS011;7323;50.848;4.334;2023-04-19T12:34:17;14.63;;;6.77;;
14474;SDS011;7323;50.848;4.334;2023-04-19T12:36:43;7.00;;;5.77;;
14474;SDS011;7323;50.848;4.334;2023-04-19T12:39:08;9.33;;;6.37;;
14474;SDS011;7323;50.848;4.334;2023-04-19T12:41:34;14.47;;;6.20;;
14474;SDS011;7323;50.848;4.334;2023-04-19T12:44:00;8.57;;;5.93;;
14474;SDS011;7323;50.848;4.334;2023-04-19T12:46:25;8.77;;;6.40;;
14474;SDS011;7323;50.848;4.334;2023-04-19T12:48:51;9.97;;;6.60;;
14474;SDS011;7323;50.848;4.334;2023-04-19T12:51:17;9.07;;;6.67;;
14474;SDS011;7323;50.848;4.334;2023-04-19T12:53:47;6.50;;;5.63;;
14474;SDS011;7323;50.848;4.334;2023-04-19T12:56:14;7.93;;;5.50;;
14474;SDS011;7323;50.848;4.334;2023-04-19T12:58:41;12.33;;;5.80;;
14474;SDS011;7323;50.848;4.334;2023-04-19T13:01:11;8.40;;;5.57;;
14474;SDS011;7323;50.848;4.334;2023-04-19T13:03:36;10.80;;;6.43;;
14474;SDS011;7323;50.848;4.334;2023-04-19T13:06:11;8.13;;;6.10;;
14474;SDS011;7323;50.848;4.334;2023-04-19T13:08:39;11.13;;;6.13;;
14474;SDS011;7323;50.848;4.334;2023-04-19T13:11:07;11.13;;;5.40;;
14474;SDS011;7323;50.848;4.334;2023-04-19T13:13:33;6.33;;;4.30;;
14474;SDS011;7323;50.848;4.334;2023-04-19T13:15:59;6.97;;;4.60;;
14474;SDS011;7323;50.848;4.334;2023-04-19T13:18:25;10.13;;;5.10;;
14474;SDS011;7323;50.848;4.334;2023-04-19T13:20:51;8.13;;;4.80;;
14474;SDS011;7323;50.848;4.334;2023-04-19T13:23:18;8.77;;;4.67;;
14474;SDS011;7323;50.848;4.334;2023-04-19T13:25:43;9.47;;;4.90;;
14474;SDS011;7323;50.848;4.334;2023-04-19T13:28:09;8.07;;;5.33;;
14474;SDS011;7323;50.848;4.334;2023-04-19T13:30:35;6.30;;;4.50;;
14474;SDS011;7323;50.848;4.334;2023-04-19T13:33:00;8.03;;;4.40;;
14474;SDS011;7323;50.848;4.334;2023-04-19T13:35:26;8.27;;;4.50;;
14474;SDS011;7323;50.848;4.334;2023-04-19T13:37:52;5.90;;;4.10;;
14474;SDS011;7323;50.848;4.334;2023-04-19T13:40:18;6.37;;;3.80;;
14474;SDS011;7323;50.848;4.334;2023-04-19T13:42:43;6.43;;;3.83;;
14474;SDS011;7323;50.848;4.334;2023-04-19T13:45:09;9.53;;;3.97;;
14474;SDS011;7323;50.848;4.334;2023-04-19T13:47:35;7.23;;;3.97;;
14474;SDS011;7323;50.848;4.334;2023-04-19T13:50:01;9.97;;;3.50;;
14474;SDS011;7323;50.848;4.334;2023-04-19T13:52:28;5.87;;;3.40;;
14474;SDS011;7323;50.848;4.334;2023-04-19T13:54:53;7.97;;;4.13;;
14474;SDS011;7323;50.848;4.334;2023-04-19T13:57:19;6.77;;;4.10;;
14474;SDS011;7323;50.848;4.334;2023-04-19T13:59:45;7.27;;;3.70;;
14474;SDS011;7323;50.848;4.334;2023-04-19T14:02:10;7.40;;;3.93;;
14474;SDS011;7323;50.848;4.334;2023-04-19T14:04:37;7.23;;;3.57;;
14474;SDS011;7323;50.848;4.334;2023-04-19T14:07:04;5.73;;;3.17;;
14474;SDS011;7323;50.848;4.334;2023-04-19T14:09:31;8.40;;;3.30;;
14474;SDS011;7323;50.848;4.334;2023-04-19T14:11:56;4.23;;;3.10;;
14474;SDS011;7323;50.848;4.334;2023-04-19T14:14:25;8.67;;;3.23;;
14474;SDS011;7323;50.848;4.334;2023-04-19T14:16:53;5.90;;;3.30;;
14474;SDS011;7323;50.848;4.334;2023-04-19T14:19:21;6.27;;;2.60;;
14474;SDS011;7323;50.848;4.334;2023-04-19T14:21:46;6.00;;;2.83;;
14474;SDS011;7323;50.848;4.334;2023-04-19T14:24:12;3.43;;;2.40;;
14474;SDS011;7323;50.848;4.334;2023-04-19T14:26:38;6.63;;;3.23;;
14474;SDS011;7323;50.848;4.334;2023-04-19T14:29:03;7.57;;;3.30;;
14474;SDS011;7323;50.848;4.334;2023-04-19T14:31:30;4.10;;;2.30;;
14474;SDS011;7323;50.848;4.334;2023-04-19T14:33:55;3.73;;;2.23;;
14474;SDS011;7323;50.848;4.334;2023-04-19T14:36:24;6.83;;;2.57;;
14474;SDS011;7323;50.848;4.334;2023-04-19T14:38:50;13.43;;;2.53;;
14474;SDS011;7323;50.848;4.334;2023-04-19T14:41:16;5.77;;;1.97;;
14474;SDS011;7323;50.848;4.334;2023-04-19T14:46:11;5.07;;;2.30;;
14474;SDS011;7323;50.848;4.334;2023-04-19T14:48:38;4.87;;;2.10;;
14474;SDS011;7323;50.848;4.334;2023-04-19T14:51:04;3.17;;;2.30;;
14474;SDS011;7323;50.848;4.334;2023-04-19T14:53:30;4.57;;;3.00;;
14474;SDS011;7323;50.848;4.334;2023-04-19T14:55:55;4.90;;;2.47;;
14474;SDS011;7323;50.848;4.334;2023-04-19T14:58:21;4.67;;;2.57;;
14474;SDS011;7323;50.848;4.334;2023-04-19T15:00:48;5.47;;;2.47;;
14474;SDS011;7323;50.848;4.334;2023-04-19T15:03:14;4.27;;;2.63;;
14474;SDS011;7323;50.848;4.334;2023-04-19T15:05:40;8.20;;;2.33;;
14474;SDS011;7323;50.848;4.334;2023-04-19T15:08:06;4.87;;;2.27;;
14474;SDS011;7323;50.848;4.334;2023-04-19T15:10:32;4.20;;;2.50;;
14474;SDS011;7323;50.848;4.334;2023-04-19T15:12:58;4.30;;;2.73;;
14474;SDS011;7323;50.848;4.334;2023-04-19T15:15:24;4.77;;;2.70;;
14474;SDS011;7323;50.848;4.334;2023-04-19T15:17:50;5.83;;;2.60;;
14474;SDS011;7323;50.848;4.334;2023-04-19T15:20:19;5.40;;;2.70;;
14474;SDS011;7323;50.848;4.334;2023-04-19T15:22:46;4.23;;;2.10;;
14474;SDS011;7323;50.848;4.334;2023-04-19T15:25:11;6.07;;;2.60;;
14474;SDS011;7323;50.848;4.334;2023-04-19T15:27:37;6.17;;;2.30;;
14474;SDS011;7323;50.848;4.334;2023-04-19T15:30:04;6.07;;;2.60;;
14474;SDS011;7323;50.848;4.334;2023-04-19T15:32:30;3.37;;;2.13;;
14474;SDS011;7323;50.848;4.334;2023-04-19T15:34:58;5.17;;;2.57;;
14474;SDS011;7323;50.848;4.334;2023-04-19T15:37:24;4.47;;;2.73;;
14474;SDS011;7323;50.848;4.334;2023-04-19T15:39:51;4.50;;;2.23;;
14474;SDS011;7323;50.848;4.334;2023-04-19T15:42:16;6.50;;;2.87;;
14474;SDS011;7323;50.848;4.334;2023-04-19T15:44:43;3.40;;;2.10;;
14474;SDS011;7323;50.848;4.334;2023-04-19T15:47:09;3.27;;;2.23;;
14474;SDS011;7323;50.848;4.334;2023-04-19T15:49:35;5.53;;;2.23;;
14474;SDS011;7323;50.848;4.334;2023-04-19T15:52:00;6.17;;;2.40;;
14474;SDS011;7323;50.848;4.334;2023-04-19T15:54:26;4.47;;;2.30;;
14474;SDS011;7323;50.848;4.334;2023-04-19T15:56:52;3.63;;;2.30;;
14474;SDS011;7323;50.848;4.334;2023-04-19T15:59:20;6.77;;;2.23;;
14474;SDS011;7323;50.848;4.334;2023-04-19T16:04:14;6.10;;;2.60;;
14474;SDS011;7323;50.848;4.334;2023-04-19T16:06:45;4.40;;;2.00;;
14474;SDS011;7323;50.848;4.334;2023-04-19T16:09:11;3.50;;;2.30;;
14474;SDS011;7323;50.848;4.334;2023-04-19T16:11:36;7.07;;;2.83;;
14474;SDS011;7323;50.848;4.334;2023-04-19T16:14:03;4.53;;;2.23;;
14474;SDS011;7323;50.848;4.334;2023-04-19T16:16:29;6.67;;;2.60;;
14474;SDS011;7323;50.848;4.334;2023-04-19T16:18:57;4.83;;;2.50;;
14474;SDS011;7323;50.848;4.334;2023-04-19T16:21:23;4.20;;;1.90;;
14474;SDS011;7323;50.848;4.334;2023-04-19T16:23:52;5.00;;;1.87;;
14474;SDS011;7323;50.848;4.334;2023-04-19T16:26:18;4.43;;;2.23;;
14474;SDS011;7323;50.848;4.334;2023-04-19T16:28:44;3.80;;;2.30;;
14474;SDS011;7323;50.848;4.334;2023-04-19T16:31:13;8.50;;;2.77;;
14474;SDS011;7323;50.848;4.334;2023-04-19T16:33:38;5.77;;;2.40;;
14474;SDS011;7323;50.848;4.334;2023-04-19T16:36:07;3.67;;;2.10;;
14474;SDS011;7323;50.848;4.334;2023-04-19T16:38:32;5.53;;;2.37;;
14474;SDS011;7323;50.848;4.334;2023-04-19T16:41:01;5.90;;;2.70;;
14474;SDS011;7323;50.848;4.334;2023-04-19T16:43:29;6.00;;;2.20;;
14474;SDS011;7323;50.848;4.334;2023-04-19T16:45:55;4.83;;;2.37;;
14474;SDS011;7323;50.848;4.334;2023-04-19T16:48:20;5.10;;;2.80;;
14474;SDS011;7323;50.848;4.334;2023-04-19T16:50:47;5.20;;;2.80;;
14474;SDS011;7323;50.848;4.334;2023-04-19T16:53:14;4.60;;;2.83;;
14474;SDS011;7323;50.848;4.334;2023-04-19T16:55:40;3.87;;;2.27;;
14474;SDS011;7323;50.848;4.334;2023-04-19T16:58:08;4.33;;;2.47;;
14474;SDS011;7323;50.848;4.334;2023-04-19T17:00:37;5.13;;;2.73;;
14474;SDS011;7323;50.848;4.334;2023-04-19T17:05:57;4.00;;;2.70;;
14474;SDS011;7323;50.848;4.334;2023-04-19T17:08:22;6.43;;;3.00;;
14474;SDS011;7323;50.848;4.334;2023-04-19T17:10:48;3.80;;;2.70;;
14474;SDS011;7323;50.848;4.334;2023-04-19T17:13:14;7.50;;;2.97;;
14474;SDS011;7323;50.848;4.334;2023-04-19T17:15:42;3.90;;;2.63;;
14474;SDS011;7323;50.848;4.334;2023-04-19T17:18:07;5.67;;;3.13;;
14474;SDS011;7323;50.848;4.334;2023-04-19T17:20:33;4.73;;;2.97;;
14474;SDS011;7323;50.848;4.334;2023-04-19T17:23:01;4.37;;;3.03;;
14474;SDS011;7323;50.848;4.334;2023-04-19T17:25:27;6.00;;;3.53;;
14474;SDS011;7323;50.848;4.334;2023-04-19T17:27:53;5.57;;;2.90;;
14474;SDS011;7323;50.848;4.334;2023-04-19T17:30:22;4.90;;;3.07;;
14474;SDS011;7323;50.848;4.334;2023-04-19T17:32:48;4.27;;;3.47;;
14474;SDS011;7323;50.848;4.334;2023-04-19T17:35:16;6.50;;;3.43;;
14474;SDS011;7323;50.848;4.334;2023-04-19T17:37:42;5.80;;;3.40;;
14474;SDS011;7323;50.848;4.334;2023-04-19T17:40:08;8.63;;;3.57;;
14474;SDS011;7323;50.848;4.334;2023-04-19T17:42:34;4.83;;;3.20;;
14474;SDS011;7323;50.848;4.334;2023-04-19T17:45:00;10.13;;;3.70;;
14474;SDS011;7323;50.848;4.334;2023-04-19T17:47:26;5.20;;;3.67;;
14474;SDS011;7323;50.848;4.334;2023-04-19T17:49:52;4.90;;;3.57;;
14474;SDS011;7323;50.848;4.334;2023-04-19T17:52:29;5.07;;;3.70;;
14474;SDS011;7323;50.848;4.334;2023-04-19T17:55:00;6.07;;;3.87;;
14474;SDS011;7323;50.848;4.334;2023-04-19T17:57:31;5.47;;;3.90;;
14474;SDS011;7323;50.848;4.334;2023-04-19T17:59:58;5.93;;;3.83;;
14474;SDS011;7323;50.848;4.334;2023-04-19T18:02:25;6.97;;;4.20;;
14474;SDS011;7323;50.848;4.334;2023-04-19T18:04:54;6.03;;;3.50;;
14474;SDS011;7323;50.848;4.334;2023-04-19T18:07:22;7.17;;;4.73;;
14474;SDS011;7323;50.848;4.334;2023-04-19T18:09:48;7.30;;;4.33;;
14474;SDS011;7323;50.848;4.334;2023-04-19T18:12:13;8.00;;;4.50;;
14474;SDS011;7323;50.848;4.334;2023-04-19T18:14:45;5.10;;;3.73;;
14474;SDS011;7323;50.848;4.334;2023-04-19T18:17:11;9.43;;;4.40;;
14474;SDS011;7323;50.848;4.334;2023-04-19T18:19:36;7.77;;;4.63;;
14474;SDS011;7323;50.848;4.334;2023-04-19T18:22:02;6.07;;;4.67;;
14474;SDS011;7323;50.848;4.334;2023-04-19T18:24:30;7.53;;;4.37;;
14474;SDS011;7323;50.848;4.334;2023-04-19T18:26:59;7.20;;;4.57;;
14474;SDS011;7323;50.848;4.334;2023-04-19T18:29:26;6.77;;;4.70;;
14474;SDS011;7323;50.848;4.334;2023-04-19T18:31:52;7.03;;;4.37;;
14474;SDS011;7323;50.848;4.334;2023-04-19T18:34:19;6.13;;;4.37;;
14474;SDS011;7323;50.848;4.334;2023-04-19T18:36:44;7.37;;;5.17;;
14474;SDS011;7323;50.848;4.334;2023-04-19T18:39:10;8.43;;;4.00;;
14474;SDS011;7323;50.848;4.334;2023-04-19T18:41:39;7.63;;;4.60;;
14474;SDS011;7323;50.848;4.334;2023-04-19T18:44:11;6.90;;;4.30;;
14474;SDS011;7323;50.848;4.334;2023-04-19T18:46:38;9.17;;;4.97;;
14474;SDS011;7323;50.848;4.334;2023-04-19T18:49:07;8.90;;;4.40;;
14474;SDS011;7323;50.848;4.334;2023-04-19T18:51:35;7.23;;;4.90;;
14474;SDS011;7323;50.848;4.334;2023-04-19T18:54:01;6.77;;;4.00;;
14474;SDS011;7323;50.848;4.334;2023-04-19T18:56:28;7.60;;;3.93;;
14474;SDS011;7323;50.848;4.334;2023-04-19T18:58:55;6.33;;;4.00;;
14474;SDS011;7323;50.848;4.334;2023-04-19T19:01:23;8.57;;;4.50;;